sensor_id;sensor_type;location;lat;lon;timestamp;P1;durP1;ratioP1;P2;durP2;ratioP2
48241;SDS011;34041;51.812;4.622;2023-05-10T00:00:12;15.47;;;12.13;;
48241;SDS011;34041;51.812;4.622;2023-05-10T00:03:13;13.23;;;11.80;;
48241;SDS011;34041;51.812;4.622;2023-05-10T00:06:13;13.50;;;10.07;;
48241;SDS011;34041;51.812;4.622;2023-05-10T00:09:13;14.17;;;12.20;;
48241;SDS011;34041;51.812;4.622;2023-05-10T00:12:13;13.07;;;11.20;;
48241;SDS011;34041;51.812;4.622;2023-05-10T00:15:14;13.80;;;11.43;;
48241;SDS011;34041;51.812;4.622;2023-05-10T00:18:14;14.57;;;11.80;;
48241;SDS011;34041;51.812;4.622;2023-05-10T00:21:14;13.23;;;11.55;;
48241;SDS011;34041;51.812;4.622;2023-05-10T00:24:15;16.73;;;12.57;;
48241;SDS011;34041;51.812;4.622;2023-05-10T00:27:15;18.85;;;13.23;;
48241;SDS011;34041;51.812;4.622;2023-05-10T00:30:15;13.13;;;11.03;;
48241;SDS011;34041;51.812;4.622;2023-05-10T00:33:15;13.90;;;12.00;;
48241;SDS011;34041;51.812;4.622;2023-05-10T00:36:16;15.77;;;11.43;;
48241;SDS011;34041;51.812;4.622;2023-05-10T00:39:16;14.57;;;11.30;;
48241;SDS011;34041;51.812;4.622;2023-05-10T00:42:16;14.13;;;11.30;;
48241;SDS011;34041;51.812;4.622;2023-05-10T00:45:16;13.03;;;10.53;;
48241;SDS011;34041;51.812;4.622;2023-05-10T00:48:16;12.40;;;10.95;;
48241;SDS011;34041;51.812;4.622;2023-05-10T00:51:17;15.18;;;12.18;;
48241;SDS011;34041;51.812;4.622;2023-05-10T00:54:17;16.60;;;11.60;;
48241;SDS011;34041;51.812;4.622;2023-05-10T00:57:17;13.00;;;11.18;;
48241;SDS011;34041;51.812;4.622;2023-05-10T01:00:18;15.30;;;11.77;;
48241;SDS011;34041;51.812;4.622;2023-05-10T01:03:18;12.65;;;11.02;;
48241;SDS011;34041;51.812;4.622;2023-05-10T01:06:19;13.68;;;12.18;;
48241;SDS011;34041;51.812;4.622;2023-05-10T01:09:19;13.77;;;11.18;;
48241;SDS011;34041;51.812;4.622;2023-05-10T01:12:20;15.65;;;11.63;;
48241;SDS011;34041;51.812;4.622;2023-05-10T01:15:20;12.82;;;11.43;;
48241;SDS011;34041;51.812;4.622;2023-05-10T01:18:21;15.75;;;12.40;;
48241;SDS011;34041;51.812;4.622;2023-05-10T01:31:03;15.93;;;12.60;;
48241;SDS011;34041;51.812;4.622;2023-05-10T01:34:16;15.02;;;12.18;;
48241;SDS011;34041;51.812;4.622;2023-05-10T01:37:20;15.50;;;12.02;;
48241;SDS011;34041;51.812;4.622;2023-05-10T01:40:29;14.52;;;12.40;;
48241;SDS011;34041;51.812;4.622;2023-05-10T01:43:37;18.65;;;13.20;;
48241;SDS011;34041;51.812;4.622;2023-05-10T01:46:39;16.63;;;12.23;;
48241;SDS011;34041;51.812;4.622;2023-05-10T01:49:49;17.48;;;12.60;;
48241;SDS011;34041;51.812;4.622;2023-05-10T01:52:51;14.95;;;12.00;;
48241;SDS011;34041;51.812;4.622;2023-05-10T01:55:54;20.23;;;13.05;;
48241;SDS011;34041;51.812;4.622;2023-05-10T01:58:55;14.73;;;12.32;;
48241;SDS011;34041;51.812;4.622;2023-05-10T02:01:57;16.75;;;12.25;;
48241;SDS011;34041;51.812;4.622;2023-05-10T02:04:58;14.98;;;12.02;;
48241;SDS011;34041;51.812;4.622;2023-05-10T02:07:59;16.95;;;11.88;;
48241;SDS011;34041;51.812;4.622;2023-05-10T02:11:01;14.57;;;11.77;;
48241;SDS011;34041;51.812;4.622;2023-05-10T02:14:02;16.48;;;12.48;;
48241;SDS011;34041;51.812;4.622;2023-05-10T02:17:03;16.92;;;11.98;;
48241;SDS011;34041;51.812;4.622;2023-05-10T02:20:07;16.00;;;13.07;;
48241;SDS011;34041;51.812;4.622;2023-05-10T02:23:08;14.88;;;12.57;;
48241;SDS011;34041;51.812;4.622;2023-05-10T02:26:09;21.05;;;12.68;;
48241;SDS011;34041;51.812;4.622;2023-05-10T02:29:10;16.65;;;12.10;;
48241;SDS011;34041;51.812;4.622;2023-05-10T02:32:12;17.13;;;11.57;;
48241;SDS011;34041;51.812;4.622;2023-05-10T02:35:12;15.95;;;12.07;;
48241;SDS011;34041;51.812;4.622;2023-05-10T02:38:13;17.50;;;11.98;;
48241;SDS011;34041;51.812;4.622;2023-05-10T02:41:14;16.98;;;12.50;;
48241;SDS011;34041;51.812;4.622;2023-05-10T02:44:15;19.25;;;12.38;;
48241;SDS011;34041;51.812;4.622;2023-05-10T02:47:16;17.27;;;12.55;;
48241;SDS011;34041;51.812;4.622;2023-05-10T02:50:16;15.45;;;11.07;;
48241;SDS011;34041;51.812;4.622;2023-05-10T02:53:18;16.10;;;11.73;;
48241;SDS011;34041;51.812;4.622;2023-05-10T02:56:23;15.88;;;11.15;;
48241;SDS011;34041;51.812;4.622;2023-05-10T02:59:25;16.95;;;12.15;;
48241;SDS011;34041;51.812;4.622;2023-05-10T03:02:25;15.45;;;11.70;;
48241;SDS011;34041;51.812;4.622;2023-05-10T03:05:26;15.45;;;10.63;;
48241;SDS011;34041;51.812;4.622;2023-05-10T03:08:26;17.33;;;11.80;;
48241;SDS011;34041;51.812;4.622;2023-05-10T03:18:09;15.07;;;11.50;;
48241;SDS011;34041;51.812;4.622;2023-05-10T03:21:11;12.90;;;10.23;;
48241;SDS011;34041;51.812;4.622;2023-05-10T03:24:12;15.88;;;11.98;;
48241;SDS011;34041;51.812;4.622;2023-05-10T03:27:15;18.13;;;11.60;;
48241;SDS011;34041;51.812;4.622;2023-05-10T03:30:15;17.50;;;11.98;;
48241;SDS011;34041;51.812;4.622;2023-05-10T03:33:16;17.05;;;11.45;;
48241;SDS011;34041;51.812;4.622;2023-05-10T03:36:16;15.30;;;12.13;;
48241;SDS011;34041;51.812;4.622;2023-05-10T03:39:17;16.55;;;11.55;;
48241;SDS011;34041;51.812;4.622;2023-05-10T03:42:17;14.93;;;11.20;;
48241;SDS011;34041;51.812;4.622;2023-05-10T03:45:17;16.42;;;12.60;;
48241;SDS011;34041;51.812;4.622;2023-05-10T03:48:18;17.77;;;11.97;;
48241;SDS011;34041;51.812;4.622;2023-05-10T03:51:18;19.43;;;13.23;;
48241;SDS011;34041;51.812;4.622;2023-05-10T03:54:18;17.00;;;13.17;;
48241;SDS011;34041;51.812;4.622;2023-05-10T03:57:18;16.50;;;12.03;;
48241;SDS011;34041;51.812;4.622;2023-05-10T04:00:19;20.67;;;13.73;;
48241;SDS011;34041;51.812;4.622;2023-05-10T04:03:19;18.48;;;12.38;;
48241;SDS011;34041;51.812;4.622;2023-05-10T04:06:20;17.90;;;13.00;;
48241;SDS011;34041;51.812;4.622;2023-05-10T04:09:20;15.53;;;12.77;;
48241;SDS011;34041;51.812;4.622;2023-05-10T04:12:20;15.93;;;13.48;;
48241;SDS011;34041;51.812;4.622;2023-05-10T04:15:20;18.37;;;12.97;;
48241;SDS011;34041;51.812;4.622;2023-05-10T04:18:21;16.67;;;12.38;;
48241;SDS011;34041;51.812;4.622;2023-05-10T04:21:21;19.07;;;14.73;;
48241;SDS011;34041;51.812;4.622;2023-05-10T04:24:21;20.00;;;14.63;;
48241;SDS011;34041;51.812;4.622;2023-05-10T04:27:21;21.70;;;16.83;;
48241;SDS011;34041;51.812;4.622;2023-05-10T04:30:21;20.50;;;14.83;;
48241;SDS011;34041;51.812;4.622;2023-05-10T04:33:22;19.70;;;13.73;;
48241;SDS011;34041;51.812;4.622;2023-05-10T04:36:22;21.95;;;15.95;;
48241;SDS011;34041;51.812;4.622;2023-05-10T04:39:22;20.88;;;15.10;;
48241;SDS011;34041;51.812;4.622;2023-05-10T04:42:23;17.77;;;13.90;;
48241;SDS011;34041;51.812;4.622;2023-05-10T04:45:23;16.93;;;14.63;;
48241;SDS011;34041;51.812;4.622;2023-05-10T04:48:23;22.27;;;16.90;;
48241;SDS011;34041;51.812;4.622;2023-05-10T04:51:23;20.03;;;15.90;;
48241;SDS011;34041;51.812;4.622;2023-05-10T04:54:24;20.53;;;16.73;;
48241;SDS011;34041;51.812;4.622;2023-05-10T04:57:24;22.10;;;17.50;;
48241;SDS011;34041;51.812;4.622;2023-05-10T05:00:24;22.35;;;18.02;;
48241;SDS011;34041;51.812;4.622;2023-05-10T05:03:24;21.57;;;17.87;;
48241;SDS011;34041;51.812;4.622;2023-05-10T05:06:25;18.50;;;16.60;;
48241;SDS011;34041;51.812;4.622;2023-05-10T05:09:27;21.85;;;17.23;;
48241;SDS011;34041;51.812;4.622;2023-05-10T05:12:27;20.37;;;16.97;;
48241;SDS011;34041;51.812;4.622;2023-05-10T05:15:27;24.90;;;19.47;;
48241;SDS011;34041;51.812;4.622;2023-05-10T05:18:28;21.52;;;16.30;;
48241;SDS011;34041;51.812;4.622;2023-05-10T05:21:28;18.92;;;16.88;;
48241;SDS011;34041;51.812;4.622;2023-05-10T05:24:29;21.10;;;17.35;;
48241;SDS011;34041;51.812;4.622;2023-05-10T05:27:29;19.73;;;16.77;;
48241;SDS011;34041;51.812;4.622;2023-05-10T05:30:29;21.52;;;15.50;;
48241;SDS011;34041;51.812;4.622;2023-05-10T05:33:29;19.40;;;15.47;;
48241;SDS011;34041;51.812;4.622;2023-05-10T05:36:30;20.37;;;14.97;;
48241;SDS011;34041;51.812;4.622;2023-05-10T05:39:31;21.85;;;15.98;;
48241;SDS011;34041;51.812;4.622;2023-05-10T05:42:31;17.13;;;13.43;;
48241;SDS011;34041;51.812;4.622;2023-05-10T05:45:31;20.80;;;15.23;;
48241;SDS011;34041;51.812;4.622;2023-05-10T05:48:32;17.70;;;13.93;;
48241;SDS011;34041;51.812;4.622;2023-05-10T05:51:32;19.63;;;14.68;;
48241;SDS011;34041;51.812;4.622;2023-05-10T05:54:32;14.90;;;12.57;;
48241;SDS011;34041;51.812;4.622;2023-05-10T05:57:32;18.40;;;13.77;;
48241;SDS011;34041;51.812;4.622;2023-05-10T06:00:33;16.90;;;13.13;;
48241;SDS011;34041;51.812;4.622;2023-05-10T06:03:33;18.58;;;13.27;;
48241;SDS011;34041;51.812;4.622;2023-05-10T06:06:34;19.93;;;13.77;;
48241;SDS011;34041;51.812;4.622;2023-05-10T06:09:34;19.97;;;14.00;;
48241;SDS011;34041;51.812;4.622;2023-05-10T06:12:34;18.00;;;12.98;;
48241;SDS011;34041;51.812;4.622;2023-05-10T06:15:35;16.30;;;13.65;;
48241;SDS011;34041;51.812;4.622;2023-05-10T06:18:35;20.35;;;13.73;;
48241;SDS011;34041;51.812;4.622;2023-05-10T06:21:35;22.10;;;13.60;;
48241;SDS011;34041;51.812;4.622;2023-05-10T06:24:36;18.55;;;12.60;;
48241;SDS011;34041;51.812;4.622;2023-05-10T06:27:36;15.53;;;12.20;;
48241;SDS011;34041;51.812;4.622;2023-05-10T06:30:36;18.45;;;13.38;;
48241;SDS011;34041;51.812;4.622;2023-05-10T06:33:37;17.10;;;11.63;;
48241;SDS011;34041;51.812;4.622;2023-05-10T06:36:37;14.83;;;11.73;;
48241;SDS011;34041;51.812;4.622;2023-05-10T06:39:37;14.43;;;12.88;;
48241;SDS011;34041;51.812;4.622;2023-05-10T06:42:37;13.80;;;11.23;;
48241;SDS011;34041;51.812;4.622;2023-05-10T06:45:38;13.03;;;10.60;;
48241;SDS011;34041;51.812;4.622;2023-05-10T06:48:38;20.58;;;12.00;;
48241;SDS011;34041;51.812;4.622;2023-05-10T06:51:38;11.60;;;10.40;;
48241;SDS011;34041;51.812;4.622;2023-05-10T06:54:38;16.47;;;10.23;;
48241;SDS011;34041;51.812;4.622;2023-05-10T06:57:38;17.23;;;11.53;;
48241;SDS011;34041;51.812;4.622;2023-05-10T07:00:39;11.33;;;9.67;;
48241;SDS011;34041;51.812;4.622;2023-05-10T07:03:40;14.45;;;10.48;;
48241;SDS011;34041;51.812;4.622;2023-05-10T07:06:40;12.55;;;9.93;;
48241;SDS011;34041;51.812;4.622;2023-05-10T07:09:40;12.02;;;9.50;;
48241;SDS011;34041;51.812;4.622;2023-05-10T07:12:41;12.05;;;10.23;;
48241;SDS011;34041;51.812;4.622;2023-05-10T07:15:41;11.70;;;9.50;;
48241;SDS011;34041;51.812;4.622;2023-05-10T07:18:42;13.15;;;8.95;;
48241;SDS011;34041;51.812;4.622;2023-05-10T07:21:42;12.45;;;9.00;;
48241;SDS011;34041;51.812;4.622;2023-05-10T07:24:43;9.18;;;7.78;;
48241;SDS011;34041;51.812;4.622;2023-05-10T07:27:43;12.77;;;8.73;;
48241;SDS011;34041;51.812;4.622;2023-05-10T07:30:44;10.15;;;7.65;;
48241;SDS011;34041;51.812;4.622;2023-05-10T07:33:44;10.63;;;8.40;;
48241;SDS011;34041;51.812;4.622;2023-05-10T07:36:44;12.02;;;8.48;;
48241;SDS011;34041;51.812;4.622;2023-05-10T07:39:44;9.88;;;7.75;;
48241;SDS011;34041;51.812;4.622;2023-05-10T07:42:45;9.50;;;7.80;;
48241;SDS011;34041;51.812;4.622;2023-05-10T07:45:45;11.27;;;7.80;;
48241;SDS011;34041;51.812;4.622;2023-05-10T07:48:45;10.52;;;8.13;;
48241;SDS011;34041;51.812;4.622;2023-05-10T07:51:46;10.20;;;7.07;;
48241;SDS011;34041;51.812;4.622;2023-05-10T07:54:46;9.90;;;7.47;;
48241;SDS011;34041;51.812;4.622;2023-05-10T07:57:46;9.93;;;7.00;;
48241;SDS011;34041;51.812;4.622;2023-05-10T08:00:46;10.80;;;7.60;;
48241;SDS011;34041;51.812;4.622;2023-05-10T08:03:47;8.82;;;6.90;;
48241;SDS011;34041;51.812;4.622;2023-05-10T08:06:47;8.43;;;6.43;;
48241;SDS011;34041;51.812;4.622;2023-05-10T08:09:47;8.67;;;6.70;;
48241;SDS011;34041;51.812;4.622;2023-05-10T08:12:47;8.57;;;6.07;;
48241;SDS011;34041;51.812;4.622;2023-05-10T08:15:48;8.70;;;6.63;;
48241;SDS011;34041;51.812;4.622;2023-05-10T08:18:48;8.00;;;6.18;;
48241;SDS011;34041;51.812;4.622;2023-05-10T08:21:50;8.10;;;6.40;;
48241;SDS011;34041;51.812;4.622;2023-05-10T08:24:50;8.25;;;6.75;;
48241;SDS011;34041;51.812;4.622;2023-05-10T08:27:51;8.73;;;6.40;;
48241;SDS011;34041;51.812;4.622;2023-05-10T08:30:51;8.23;;;6.37;;
48241;SDS011;34041;51.812;4.622;2023-05-10T08:33:52;9.77;;;5.93;;
48241;SDS011;34041;51.812;4.622;2023-05-10T08:36:52;6.70;;;4.97;;
48241;SDS011;34041;51.812;4.622;2023-05-10T08:39:52;7.88;;;5.20;;
48241;SDS011;34041;51.812;4.622;2023-05-10T08:43:03;7.97;;;5.80;;
48241;SDS011;34041;51.812;4.622;2023-05-10T08:46:05;5.68;;;5.07;;
48241;SDS011;34041;51.812;4.622;2023-05-10T08:49:06;5.55;;;5.00;;
48241;SDS011;34041;51.812;4.622;2023-05-10T08:52:07;8.45;;;6.65;;
48241;SDS011;34041;51.812;4.622;2023-05-10T08:55:08;10.50;;;5.13;;
48241;SDS011;34041;51.812;4.622;2023-05-10T08:58:09;9.45;;;5.15;;
48241;SDS011;34041;51.812;4.622;2023-05-10T09:01:09;7.20;;;4.25;;
48241;SDS011;34041;51.812;4.622;2023-05-10T09:04:09;6.85;;;4.65;;
48241;SDS011;34041;51.812;4.622;2023-05-10T09:07:10;5.38;;;4.15;;
48241;SDS011;34041;51.812;4.622;2023-05-10T09:10:11;7.22;;;4.65;;
48241;SDS011;34041;51.812;4.622;2023-05-10T09:13:11;7.10;;;4.13;;
48241;SDS011;34041;51.812;4.622;2023-05-10T09:16:11;4.57;;;4.10;;
48241;SDS011;34041;51.812;4.622;2023-05-10T09:19:12;6.77;;;4.27;;
48241;SDS011;34041;51.812;4.622;2023-05-10T09:22:12;6.35;;;4.03;;
48241;SDS011;34041;51.812;4.622;2023-05-10T09:25:15;5.13;;;4.23;;
48241;SDS011;34041;51.812;4.622;2023-05-10T09:28:16;4.43;;;4.00;;
48241;SDS011;34041;51.812;4.622;2023-05-10T09:31:16;5.00;;;4.07;;
48241;SDS011;34041;51.812;4.622;2023-05-10T09:34:30;5.93;;;4.73;;
48241;SDS011;34041;51.812;4.622;2023-05-10T09:37:30;5.55;;;4.03;;
48241;SDS011;34041;51.812;4.622;2023-05-10T09:40:31;6.45;;;3.97;;
48241;SDS011;34041;51.812;4.622;2023-05-10T09:43:37;6.30;;;3.78;;
48241;SDS011;34041;51.812;4.622;2023-05-10T09:46:37;4.28;;;3.72;;
48241;SDS011;34041;51.812;4.622;2023-05-10T09:49:38;4.18;;;3.45;;
48241;SDS011;34041;51.812;4.622;2023-05-10T09:52:51;4.63;;;3.80;;
48241;SDS011;34041;51.812;4.622;2023-05-10T09:55:51;4.57;;;3.53;;
48241;SDS011;34041;51.812;4.622;2023-05-10T09:59:01;4.93;;;3.77;;
48241;SDS011;34041;51.812;4.622;2023-05-10T10:02:02;6.22;;;3.95;;
48241;SDS011;34041;51.812;4.622;2023-05-10T10:05:02;5.05;;;3.50;;
48241;SDS011;34041;51.812;4.622;2023-05-10T10:08:05;6.30;;;3.72;;
48241;SDS011;34041;51.812;4.622;2023-05-10T10:11:06;4.55;;;3.65;;
48241;SDS011;34041;51.812;4.622;2023-05-10T10:14:06;6.90;;;3.60;;
48241;SDS011;34041;51.812;4.622;2023-05-10T10:17:06;4.10;;;3.65;;
48241;SDS011;34041;51.812;4.622;2023-05-10T10:20:07;4.85;;;3.92;;
48241;SDS011;34041;51.812;4.622;2023-05-10T10:23:08;4.88;;;3.45;;
48241;SDS011;34041;51.812;4.622;2023-05-10T10:26:08;4.47;;;3.40;;
48241;SDS011;34041;51.812;4.622;2023-05-10T10:29:26;4.05;;;3.20;;
48241;SDS011;34041;51.812;4.622;2023-05-10T10:35:45;4.20;;;3.30;;
48241;SDS011;34041;51.812;4.622;2023-05-10T10:41:53;5.17;;;3.17;;
48241;SDS011;34041;51.812;4.622;2023-05-10T10:45:11;3.80;;;2.95;;
48241;SDS011;34041;51.812;4.622;2023-05-10T10:48:23;5.63;;;3.20;;
48241;SDS011;34041;51.812;4.622;2023-05-10T10:51:23;5.70;;;3.35;;
48241;SDS011;34041;51.812;4.622;2023-05-10T10:54:27;4.50;;;3.70;;
48241;SDS011;34041;51.812;4.622;2023-05-10T10:57:30;6.50;;;3.10;;
48241;SDS011;34041;51.812;4.622;2023-05-10T11:00:38;4.68;;;3.45;;
48241;SDS011;34041;51.812;4.622;2023-05-10T11:03:41;6.68;;;3.17;;
48241;SDS011;34041;51.812;4.622;2023-05-10T11:06:41;4.18;;;3.42;;
48241;SDS011;34041;51.812;4.622;2023-05-10T11:09:42;5.28;;;3.40;;
48241;SDS011;34041;51.812;4.622;2023-05-10T11:12:50;3.83;;;2.70;;
48241;SDS011;34041;51.812;4.622;2023-05-10T11:15:51;5.75;;;3.35;;
48241;SDS011;34041;51.812;4.622;2023-05-10T11:18:52;4.40;;;3.67;;
48241;SDS011;34041;51.812;4.622;2023-05-10T11:25:05;4.32;;;3.53;;
48241;SDS011;34041;51.812;4.622;2023-05-10T11:28:05;5.70;;;3.72;;
48241;SDS011;34041;51.812;4.622;2023-05-10T11:31:06;4.35;;;3.33;;
48241;SDS011;34041;51.812;4.622;2023-05-10T11:34:06;5.00;;;3.08;;
48241;SDS011;34041;51.812;4.622;2023-05-10T11:37:06;6.70;;;3.97;;
48241;SDS011;34041;51.812;4.622;2023-05-10T11:40:07;4.73;;;3.40;;
48241;SDS011;34041;51.812;4.622;2023-05-10T11:43:09;4.00;;;3.30;;
48241;SDS011;34041;51.812;4.622;2023-05-10T11:46:11;5.80;;;3.13;;
48241;SDS011;34041;51.812;4.622;2023-05-10T11:49:11;5.05;;;3.33;;
48241;SDS011;34041;51.812;4.622;2023-05-10T11:52:13;5.53;;;3.67;;
48241;SDS011;34041;51.812;4.622;2023-05-10T11:55:13;4.95;;;3.60;;
48241;SDS011;34041;51.812;4.622;2023-05-10T11:58:13;4.60;;;3.37;;
48241;SDS011;34041;51.812;4.622;2023-05-10T12:01:14;4.63;;;3.50;;
48241;SDS011;34041;51.812;4.622;2023-05-10T12:04:14;4.47;;;3.37;;
48241;SDS011;34041;51.812;4.622;2023-05-10T12:07:14;5.80;;;3.30;;
48241;SDS011;34041;51.812;4.622;2023-05-10T12:10:14;4.15;;;3.20;;
48241;SDS011;34041;51.812;4.622;2023-05-10T12:13:16;4.43;;;3.20;;
48241;SDS011;34041;51.812;4.622;2023-05-10T12:16:18;3.75;;;2.95;;
48241;SDS011;34041;51.812;4.622;2023-05-10T12:19:18;5.15;;;3.10;;
48241;SDS011;34041;51.812;4.622;2023-05-10T12:22:20;6.13;;;3.70;;
48241;SDS011;34041;51.812;4.622;2023-05-10T12:25:21;5.72;;;3.83;;
48241;SDS011;34041;51.812;4.622;2023-05-10T12:28:22;7.93;;;3.58;;
48241;SDS011;34041;51.812;4.622;2023-05-10T12:31:22;4.90;;;2.73;;
48241;SDS011;34041;51.812;4.622;2023-05-10T12:37:27;4.07;;;2.67;;
48241;SDS011;34041;51.812;4.622;2023-05-10T12:40:27;4.85;;;3.20;;
48241;SDS011;34041;51.812;4.622;2023-05-10T12:43:28;3.38;;;2.63;;
48241;SDS011;34041;51.812;4.622;2023-05-10T12:46:29;5.82;;;2.95;;
48241;SDS011;34041;51.812;4.622;2023-05-10T12:49:29;4.88;;;3.50;;
48241;SDS011;34041;51.812;4.622;2023-05-10T12:52:29;5.03;;;2.50;;
48241;SDS011;34041;51.812;4.622;2023-05-10T12:55:30;6.15;;;3.03;;
48241;SDS011;34041;51.812;4.622;2023-05-10T12:58:30;7.00;;;3.70;;
48241;SDS011;34041;51.812;4.622;2023-05-10T13:01:30;3.97;;;2.88;;
48241;SDS011;34041;51.812;4.622;2023-05-10T13:04:30;4.43;;;2.77;;
48241;SDS011;34041;51.812;4.622;2023-05-10T13:07:31;5.60;;;3.07;;
48241;SDS011;34041;51.812;4.622;2023-05-10T13:10:31;6.43;;;3.57;;
48241;SDS011;34041;51.812;4.622;2023-05-10T13:13:32;4.93;;;2.50;;
48241;SDS011;34041;51.812;4.622;2023-05-10T13:16:32;4.07;;;2.40;;
48241;SDS011;34041;51.812;4.622;2023-05-10T13:19:32;4.68;;;2.85;;
48241;SDS011;34041;51.812;4.622;2023-05-10T13:22:32;4.30;;;2.90;;
48241;SDS011;34041;51.812;4.622;2023-05-10T13:25:32;3.67;;;2.53;;
48241;SDS011;34041;51.812;4.622;2023-05-10T13:28:34;4.28;;;2.60;;
48241;SDS011;34041;51.812;4.622;2023-05-10T13:31:34;4.55;;;3.13;;
48241;SDS011;34041;51.812;4.622;2023-05-10T13:34:34;3.88;;;2.33;;
48241;SDS011;34041;51.812;4.622;2023-05-10T13:37:35;4.18;;;2.33;;
48241;SDS011;34041;51.812;4.622;2023-05-10T13:40:37;4.38;;;2.47;;
48241;SDS011;34041;51.812;4.622;2023-05-10T13:43:37;6.03;;;2.23;;
48241;SDS011;34041;51.812;4.622;2023-05-10T13:46:37;4.27;;;2.40;;
48241;SDS011;34041;51.812;4.622;2023-05-10T13:49:38;5.15;;;3.05;;
48241;SDS011;34041;51.812;4.622;2023-05-10T13:52:38;4.13;;;2.33;;
48241;SDS011;34041;51.812;4.622;2023-05-10T13:55:38;3.40;;;2.30;;
48241;SDS011;34041;51.812;4.622;2023-05-10T13:58:39;4.47;;;3.10;;
48241;SDS011;34041;51.812;4.622;2023-05-10T14:01:39;3.53;;;1.83;;
48241;SDS011;34041;51.812;4.622;2023-05-10T14:04:40;3.72;;;2.53;;
48241;SDS011;34041;51.812;4.622;2023-05-10T14:07:40;3.38;;;2.55;;
48241;SDS011;34041;51.812;4.622;2023-05-10T14:10:41;3.53;;;2.40;;
48241;SDS011;34041;51.812;4.622;2023-05-10T14:13:41;3.22;;;2.08;;
48241;SDS011;34041;51.812;4.622;2023-05-10T14:16:42;3.95;;;2.30;;
48241;SDS011;34041;51.812;4.622;2023-05-10T14:19:43;5.72;;;3.05;;
48241;SDS011;34041;51.812;4.622;2023-05-10T14:22:43;3.20;;;2.37;;
48241;SDS011;34041;51.812;4.622;2023-05-10T14:25:44;3.63;;;2.27;;
48241;SDS011;34041;51.812;4.622;2023-05-10T14:28:44;5.73;;;2.30;;
48241;SDS011;34041;51.812;4.622;2023-05-10T14:31:44;4.20;;;2.27;;
48241;SDS011;34041;51.812;4.622;2023-05-10T14:34:44;5.37;;;2.40;;
48241;SDS011;34041;51.812;4.622;2023-05-10T14:37:44;3.80;;;2.43;;
48241;SDS011;34041;51.812;4.622;2023-05-10T14:40:45;3.75;;;2.38;;
48241;SDS011;34041;51.812;4.622;2023-05-10T14:43:45;3.67;;;2.50;;
48241;SDS011;34041;51.812;4.622;2023-05-10T14:46:45;4.47;;;2.25;;
48241;SDS011;34041;51.812;4.622;2023-05-10T14:49:46;3.08;;;2.10;;
48241;SDS011;34041;51.812;4.622;2023-05-10T14:52:46;4.03;;;2.95;;
48241;SDS011;34041;51.812;4.622;2023-05-10T14:55:47;3.63;;;2.40;;
48241;SDS011;34041;51.812;4.622;2023-05-10T14:58:49;5.90;;;2.47;;
48241;SDS011;34041;51.812;4.622;2023-05-10T15:01:49;4.05;;;2.38;;
48241;SDS011;34041;51.812;4.622;2023-05-10T15:04:49;4.67;;;2.63;;
48241;SDS011;34041;51.812;4.622;2023-05-10T15:07:50;4.13;;;2.70;;
48241;SDS011;34041;51.812;4.622;2023-05-10T15:10:51;4.10;;;2.53;;
48241;SDS011;34041;51.812;4.622;2023-05-10T15:13:51;5.60;;;2.45;;
48241;SDS011;34041;51.812;4.622;2023-05-10T15:16:51;4.65;;;2.63;;
48241;SDS011;34041;51.812;4.622;2023-05-10T15:19:51;4.60;;;2.37;;
48241;SDS011;34041;51.812;4.622;2023-05-10T15:22:52;4.20;;;2.63;;
48241;SDS011;34041;51.812;4.622;2023-05-10T15:25:52;4.23;;;2.30;;
48241;SDS011;34041;51.812;4.622;2023-05-10T15:28:55;3.72;;;2.95;;
48241;SDS011;34041;51.812;4.622;2023-05-10T15:31:55;3.93;;;2.60;;
48241;SDS011;34041;51.812;4.622;2023-05-10T15:34:55;5.75;;;3.22;;
48241;SDS011;34041;51.812;4.622;2023-05-10T15:37:56;4.75;;;2.85;;
48241;SDS011;34041;51.812;4.622;2023-05-10T15:40:56;4.55;;;3.03;;
48241;SDS011;34041;51.812;4.622;2023-05-10T15:43:58;3.45;;;2.70;;
48241;SDS011;34041;51.812;4.622;2023-05-10T15:47:01;4.93;;;2.85;;
48241;SDS011;34041;51.812;4.622;2023-05-10T15:50:02;6.75;;;3.35;;
48241;SDS011;34041;51.812;4.622;2023-05-10T15:53:03;6.95;;;2.97;;
48241;SDS011;34041;51.812;4.622;2023-05-10T15:56:03;4.25;;;3.10;;
48241;SDS011;34041;51.812;4.622;2023-05-10T15:59:04;4.50;;;3.50;;
48241;SDS011;34041;51.812;4.622;2023-05-10T16:02:09;3.85;;;3.00;;
48241;SDS011;34041;51.812;4.622;2023-05-10T16:05:10;6.25;;;3.45;;
48241;SDS011;34041;51.812;4.622;2023-05-10T16:08:10;4.97;;;3.37;;
48241;SDS011;34041;51.812;4.622;2023-05-10T16:11:10;5.10;;;3.30;;
48241;SDS011;34041;51.812;4.622;2023-05-10T16:14:10;4.77;;;2.83;;
48241;SDS011;34041;51.812;4.622;2023-05-10T16:17:11;5.60;;;3.10;;
48241;SDS011;34041;51.812;4.622;2023-05-10T16:20:11;4.90;;;3.28;;
48241;SDS011;34041;51.812;4.622;2023-05-10T16:23:11;5.65;;;3.53;;
48241;SDS011;34041;51.812;4.622;2023-05-10T16:26:13;4.63;;;3.58;;
48241;SDS011;34041;51.812;4.622;2023-05-10T16:29:14;3.73;;;3.00;;
48241;SDS011;34041;51.812;4.622;2023-05-10T16:32:14;4.80;;;3.60;;
48241;SDS011;34041;51.812;4.622;2023-05-10T16:35:15;4.30;;;2.97;;
48241;SDS011;34041;51.812;4.622;2023-05-10T16:38:15;4.38;;;3.38;;
48241;SDS011;34041;51.812;4.622;2023-05-10T16:41:16;3.53;;;2.80;;
48241;SDS011;34041;51.812;4.622;2023-05-10T16:44:16;4.90;;;3.40;;
48241;SDS011;34041;51.812;4.622;2023-05-10T16:47:16;5.00;;;3.67;;
48241;SDS011;34041;51.812;4.622;2023-05-10T16:50:17;7.17;;;3.77;;
48241;SDS011;34041;51.812;4.622;2023-05-10T16:53:17;5.47;;;4.10;;
48241;SDS011;34041;51.812;4.622;2023-05-10T16:56:17;5.87;;;3.70;;
48241;SDS011;34041;51.812;4.622;2023-05-10T16:59:17;4.53;;;3.97;;
48241;SDS011;34041;51.812;4.622;2023-05-10T17:02:18;4.53;;;3.23;;
48241;SDS011;34041;51.812;4.622;2023-05-10T17:05:19;5.32;;;3.78;;
48241;SDS011;34041;51.812;4.622;2023-05-10T17:08:20;5.05;;;3.90;;
48241;SDS011;34041;51.812;4.622;2023-05-10T17:11:20;4.80;;;3.42;;
48241;SDS011;34041;51.812;4.622;2023-05-10T17:14:20;6.47;;;4.30;;
48241;SDS011;34041;51.812;4.622;2023-05-10T17:17:21;5.75;;;4.05;;
48241;SDS011;34041;51.812;4.622;2023-05-10T17:20:22;4.47;;;3.95;;
48241;SDS011;34041;51.812;4.622;2023-05-10T17:23:23;5.90;;;3.78;;
48241;SDS011;34041;51.812;4.622;2023-05-10T17:26:24;5.28;;;4.03;;
48241;SDS011;34041;51.812;4.622;2023-05-10T17:29:26;6.72;;;3.75;;
48241;SDS011;34041;51.812;4.622;2023-05-10T17:32:27;5.15;;;3.88;;
48241;SDS011;34041;51.812;4.622;2023-05-10T17:35:28;4.80;;;3.93;;
48241;SDS011;34041;51.812;4.622;2023-05-10T17:38:29;5.15;;;3.53;;
48241;SDS011;34041;51.812;4.622;2023-05-10T17:41:29;8.00;;;3.97;;
48241;SDS011;34041;51.812;4.622;2023-05-10T17:44:30;4.33;;;3.40;;
48241;SDS011;34041;51.812;4.622;2023-05-10T17:47:30;4.67;;;3.90;;
48241;SDS011;34041;51.812;4.622;2023-05-10T17:50:30;5.47;;;3.83;;
48241;SDS011;34041;51.812;4.622;2023-05-10T17:53:32;5.10;;;3.60;;
48241;SDS011;34041;51.812;4.622;2023-05-10T17:56:33;5.28;;;4.10;;
48241;SDS011;34041;51.812;4.622;2023-05-10T17:59:34;4.63;;;3.73;;
48241;SDS011;34041;51.812;4.622;2023-05-10T18:02:34;5.60;;;3.50;;
48241;SDS011;34041;51.812;4.622;2023-05-10T18:05:35;4.68;;;3.50;;
48241;SDS011;34041;51.812;4.622;2023-05-10T18:08:36;6.05;;;3.63;;
48241;SDS011;34041;51.812;4.622;2023-05-10T18:11:36;5.57;;;3.70;;
48241;SDS011;34041;51.812;4.622;2023-05-10T18:14:38;4.45;;;3.65;;
48241;SDS011;34041;51.812;4.622;2023-05-10T18:17:38;6.10;;;3.60;;
48241;SDS011;34041;51.812;4.622;2023-05-10T18:20:38;4.23;;;3.10;;
48241;SDS011;34041;51.812;4.622;2023-05-10T18:23:39;4.72;;;3.53;;
48241;SDS011;34041;51.812;4.622;2023-05-10T18:26:39;5.38;;;3.60;;